createdAt,value
2022-08-18T00:03:59.348Z,5.75
2022-08-18T00:09:09.661Z,5.68
2022-08-18T00:14:21.649Z,6.05
2022-08-18T00:19:47.094Z,5.85
2022-08-18T00:24:52.304Z,5.97
2022-08-18T00:29:59.626Z,5.93
2022-08-18T00:35:08.698Z,5.85
2022-08-18T00:40:18.859Z,6.43
2022-08-18T00:45:28.380Z,5.50
2022-08-18T00:50:35.736Z,5.95
2022-08-18T00:55:41.723Z,5.68
2022-08-18T01:01:04.208Z,5.40
2022-08-18T01:06:16.227Z,5.75
2022-08-18T01:11:19.952Z,5.78
2022-08-18T01:16:25.454Z,6.03
2022-08-18T01:21:30.729Z,5.90
2022-08-18T01:26:45.623Z,5.78
2022-08-18T01:31:53.454Z,5.80
2022-08-18T01:36:59.483Z,5.70
2022-08-18T01:42:05.072Z,5.68
2022-08-18T01:47:09.159Z,6.15
2022-08-18T01:52:16.888Z,5.55
2022-08-18T01:57:22.999Z,5.75
2022-08-18T02:02:31.460Z,6.10
2022-08-18T02:07:36.627Z,6.18
2022-08-18T02:12:42.474Z,5.63
2022-08-18T02:17:47.314Z,5.90
2022-08-18T02:22:51.987Z,6.03
2022-08-18T02:33:01.069Z,6.05
2022-08-18T02:38:06.717Z,5.67
2022-08-18T02:43:12.420Z,5.82
2022-08-18T02:48:16.128Z,5.97
2022-08-18T02:53:19.845Z,5.95
2022-08-18T02:58:25.207Z,6.53
2022-08-18T03:03:28.926Z,6.25
2022-08-18T03:08:32.641Z,6.10
2022-08-18T03:13:37.979Z,5.88
2022-08-18T03:18:41.690Z,5.88
2022-08-18T03:23:45.405Z,5.50
2022-08-18T03:29:07.074Z,5.63
2022-08-18T03:34:11.004Z,5.40
2022-08-18T03:39:15.405Z,6.35
2022-08-18T03:44:21.442Z,6.22
2022-08-18T03:49:25.157Z,5.97
2022-08-18T03:54:28.983Z,6.72
2022-08-18T03:59:34.336Z,6.22
2022-08-18T04:04:38.331Z,6.05
2022-08-18T04:09:46.811Z,5.90
2022-08-18T04:14:52.239Z,5.75
2022-08-18T04:19:56.804Z,5.60
2022-08-18T04:25:00.626Z,5.57
2022-08-18T04:30:06.811Z,5.15
2022-08-18T04:35:14.061Z,4.90
2022-08-18T04:40:24.892Z,5.10
2022-08-18T04:45:30.853Z,5.15
2022-08-18T04:50:34.578Z,5.15
2022-08-18T04:55:38.283Z,5.07
2022-08-18T05:00:43.807Z,5.18
2022-08-18T05:05:47.508Z,4.70
2022-08-18T05:10:56.474Z,5.18
2022-08-18T05:16:16.644Z,5.32
2022-08-18T05:21:24.497Z,5.15
2022-08-18T05:26:28.329Z,4.65
2022-08-18T05:31:33.782Z,4.60
2022-08-18T05:37:02.064Z,4.68
2022-08-18T05:42:08.345Z,4.82
2022-08-18T05:47:17.986Z,4.80
2022-08-18T05:52:29.528Z,4.32
2022-08-18T05:57:44.265Z,4.20
2022-08-18T06:02:55.897Z,4.43
2022-08-18T06:08:02.417Z,4.13
2022-08-18T06:13:10.441Z,3.95
2022-08-18T06:18:43.866Z,4.22
2022-08-18T06:23:56.989Z,4.47
2022-08-18T06:29:11.853Z,3.88
2022-08-18T06:34:26.497Z,4.03
2022-08-18T06:39:36.407Z,3.58
2022-08-18T06:44:45.087Z,3.70
2022-08-18T06:49:58.125Z,3.83
2022-08-18T06:55:05.271Z,3.65
2022-08-18T07:00:21.360Z,3.70
2022-08-18T07:05:28.695Z,3.88
2022-08-18T07:10:35.143Z,3.65
2022-08-18T07:15:39.007Z,3.63
2022-08-18T07:20:49.424Z,3.50
2022-08-18T07:26:06.949Z,3.33
2022-08-18T07:31:21.332Z,3.67
2022-08-18T07:36:32.709Z,3.58
2022-08-18T07:41:43.174Z,3.85
2022-08-18T07:46:55.052Z,3.60
2022-08-18T07:52:04.926Z,3.80
2022-08-18T07:57:19.848Z,3.80
2022-08-18T08:02:54.694Z,4.10
2022-08-18T08:08:06.794Z,3.88
2022-08-18T08:13:51.335Z,3.65
2022-08-18T08:19:00.889Z,3.67
2022-08-18T08:24:15.581Z,3.78
2022-08-18T08:29:33.516Z,3.67
2022-08-18T08:34:42.966Z,3.63
2022-08-18T08:39:52.614Z,3.90
2022-08-18T08:45:00.037Z,3.75
2022-08-18T08:50:08.045Z,3.90
2022-08-18T08:55:16.980Z,4.10
2022-08-18T09:00:20.914Z,3.78
2022-08-18T09:05:27.341Z,3.85
2022-08-18T09:11:00.544Z,3.38
2022-08-18T09:16:19.394Z,3.75
2022-08-18T09:21:39.373Z,3.88
2022-08-18T09:26:51.333Z,3.35
2022-08-18T09:32:31.161Z,4.10
2022-08-18T09:37:48.726Z,4.00
2022-08-18T09:43:09.038Z,3.80
2022-08-18T09:54:10.087Z,3.85
2022-08-18T09:59:55.625Z,3.88
2022-08-18T10:05:27.267Z,4.10
2022-08-18T10:11:01.201Z,3.75
2022-08-18T10:16:13.691Z,3.72
2022-08-18T10:21:21.067Z,4.05
2022-08-18T10:27:09.441Z,3.80
2022-08-18T10:32:38.679Z,3.70
2022-08-18T10:37:49.038Z,3.63
2022-08-18T10:43:10.651Z,3.55
2022-08-18T10:48:28.218Z,3.97
2022-08-18T10:53:43.991Z,4.00
2022-08-18T11:04:13.911Z,3.85
2022-08-18T11:09:29.615Z,4.07
2022-08-18T11:15:01.781Z,3.83
2022-08-18T11:20:32.110Z,4.25
2022-08-18T11:25:37.578Z,4.10
2022-08-18T11:30:44.746Z,4.30
2022-08-18T11:35:55.407Z,4.13
2022-08-18T11:41:17.785Z,4.00
2022-08-18T11:46:32.016Z,3.80
2022-08-18T11:51:37.447Z,4.10
2022-08-18T11:56:41.535Z,4.13
2022-08-18T12:01:51.630Z,3.60
2022-08-18T12:07:04.566Z,4.25
2022-08-18T12:12:18.403Z,4.35
2022-08-18T12:17:22.271Z,4.15
2022-08-18T12:22:29.894Z,4.63
2022-08-18T12:27:33.742Z,4.50
2022-08-18T12:32:46.833Z,4.40
2022-08-18T12:38:03.511Z,4.65
2022-08-18T12:43:17.155Z,4.22
2022-08-18T12:48:22.353Z,4.40
2022-08-18T12:58:53.223Z,4.10
2022-08-18T13:09:35.089Z,4.00
2022-08-18T13:14:47.294Z,4.47
2022-08-18T13:19:51.084Z,4.22
2022-08-18T13:24:58.634Z,4.10
2022-08-18T13:30:02.588Z,4.83
2022-08-18T13:35:09.159Z,4.47
2022-08-18T13:40:19.375Z,4.15
2022-08-18T13:45:25.672Z,4.50
2022-08-18T13:50:30.091Z,4.40
2022-08-18T13:55:35.407Z,4.70
2022-08-18T14:00:39.367Z,4.60
2022-08-18T14:05:51.482Z,4.55
2022-08-18T14:10:59.658Z,4.70
2022-08-18T14:16:03.282Z,3.95
2022-08-18T14:21:07.190Z,3.70
2022-08-18T14:26:14.673Z,3.90
2022-08-18T14:31:23.000Z,3.63
2022-08-18T14:36:30.019Z,3.75
2022-08-18T14:41:40.832Z,3.83
2022-08-18T14:46:52.462Z,3.25
2022-08-18T14:51:59.205Z,4.35
2022-08-18T14:57:05.375Z,3.20
2022-08-18T15:02:13.467Z,3.88
2022-08-18T15:07:19.059Z,3.50
2022-08-18T15:12:29.236Z,3.58
2022-08-18T15:22:42.969Z,3.30
2022-08-18T15:27:52.438Z,3.07
2022-08-18T15:32:56.159Z,3.08
2022-08-18T15:37:59.839Z,3.22
2022-08-18T15:43:09.731Z,2.85
2022-08-18T15:48:14.015Z,3.28
2022-08-18T15:53:19.642Z,3.10
2022-08-18T15:58:26.903Z,2.90
2022-08-18T16:03:32.178Z,3.10
2022-08-18T16:08:36.162Z,3.20
2022-08-18T16:13:42.475Z,3.30
2022-08-18T16:18:46.437Z,3.45
2022-08-18T16:23:52.173Z,3.70
2022-08-18T16:29:01.278Z,3.47
2022-08-18T16:34:05.453Z,3.55
2022-08-18T16:39:09.016Z,3.40
2022-08-18T16:44:14.458Z,3.60
2022-08-18T16:49:18.064Z,3.35
2022-08-18T16:54:21.674Z,3.53
2022-08-18T16:59:27.037Z,3.35
2022-08-18T17:04:33.414Z,3.10
2022-08-18T17:09:37.045Z,2.70
2022-08-18T17:14:42.395Z,2.90
2022-08-18T17:19:47.822Z,2.92
2022-08-18T17:24:52.864Z,2.92
2022-08-18T17:30:08.482Z,2.90
2022-08-18T17:35:15.639Z,2.83
2022-08-18T17:40:24.252Z,2.70
2022-08-18T17:45:34.384Z,2.55
2022-08-18T17:50:41.667Z,2.67
2022-08-18T17:55:50.182Z,2.70
2022-08-18T18:00:55.459Z,2.60
2022-08-18T18:11:12.463Z,2.60
2022-08-18T18:16:27.969Z,2.72
2022-08-18T18:22:00.830Z,2.65
2022-08-18T18:32:05.603Z,2.70
2022-08-18T18:37:25.947Z,2.90
2022-08-18T18:42:32.567Z,2.97
2022-08-18T18:47:48.462Z,3.22
2022-08-18T18:53:03.667Z,2.97
2022-08-18T18:58:18.776Z,3.15
2022-08-18T19:03:29.133Z,3.45
2022-08-18T19:08:41.458Z,3.10
2022-08-18T19:13:53.475Z,3.00
2022-08-18T19:19:37.921Z,2.85
2022-08-18T19:24:44.084Z,2.80
2022-08-18T19:29:48.829Z,3.30
2022-08-18T19:34:54.426Z,2.90
2022-08-18T19:40:07.719Z,2.70
2022-08-18T19:45:17.782Z,2.70
2022-08-18T19:50:30.146Z,2.70
2022-08-18T19:55:45.273Z,2.80
2022-08-18T20:00:56.030Z,3.20
2022-08-18T20:06:34.606Z,3.50
2022-08-18T20:11:57.079Z,3.38
2022-08-18T20:17:15.017Z,3.80
2022-08-18T20:22:38.696Z,3.60
2022-08-18T20:27:43.911Z,3.97
2022-08-18T20:33:19.022Z,3.80
2022-08-18T20:38:31.132Z,4.30
2022-08-18T20:43:36.815Z,4.00
2022-08-18T20:48:53.755Z,3.72
2022-08-18T20:54:13.702Z,3.97
2022-08-18T20:59:20.450Z,4.22
2022-08-18T21:04:42.493Z,3.88
2022-08-18T21:09:53.029Z,4.18
2022-08-18T21:14:58.571Z,3.70
2022-08-18T21:20:04.708Z,3.20
2022-08-18T21:25:13.438Z,3.40
2022-08-18T21:30:20.705Z,3.35
2022-08-18T21:35:33.232Z,3.33
2022-08-18T21:40:40.957Z,3.40
2022-08-18T21:45:47.970Z,3.60
2022-08-18T21:50:53.895Z,3.60
2022-08-18T21:56:00.003Z,3.60
2022-08-18T22:01:15.684Z,3.92
2022-08-18T22:06:27.627Z,3.55
2022-08-18T22:11:38.367Z,3.60
2022-08-18T22:17:29.327Z,3.60
2022-08-18T22:22:35.515Z,3.70
2022-08-18T22:27:41.443Z,4.03
2022-08-18T22:32:45.030Z,3.38
2022-08-18T22:37:50.833Z,3.40
2022-08-18T22:42:56.205Z,3.80
2022-08-18T22:47:59.776Z,3.72
2022-08-18T22:53:03.444Z,3.90
2022-08-18T22:58:08.778Z,3.63
2022-08-18T23:03:14.187Z,3.60
2022-08-18T23:08:17.810Z,3.63
2022-08-18T23:13:33.529Z,3.80
2022-08-18T23:18:37.164Z,4.60
2022-08-18T23:23:40.790Z,4.63
2022-08-18T23:28:45.993Z,4.63
2022-08-18T23:33:49.613Z,4.68
2022-08-18T23:38:53.250Z,4.43
2022-08-18T23:43:58.541Z,3.92
2022-08-18T23:49:05.477Z,4.30
2022-08-18T23:54:20.470Z,4.50
2022-08-18T23:59:26.970Z,4.10
